createdAt,value
2022-10-16T00:01:42.619Z,28.17
2022-10-16T00:04:10.242Z,27.20
2022-10-16T00:06:37.388Z,26.05
2022-10-16T00:09:04.973Z,27.60
2022-10-16T00:11:35.246Z,25.23
2022-10-16T00:14:04.815Z,25.23
2022-10-16T00:16:32.221Z,25.63
2022-10-16T00:18:59.687Z,25.30
2022-10-16T00:21:29.513Z,24.52
2022-10-16T00:24:01.000Z,24.20
2022-10-16T00:26:30.093Z,25.02
2022-10-16T00:28:57.273Z,24.48
2022-10-16T00:31:25.102Z,24.65
2022-10-16T00:33:53.266Z,23.15
2022-10-16T00:36:23.466Z,23.92
2022-10-16T00:38:55.969Z,24.38
2022-10-16T00:41:26.244Z,24.52
2022-10-16T00:43:55.431Z,24.85
2022-10-16T00:46:46.619Z,26.08
2022-10-16T00:49:19.987Z,25.35
2022-10-16T00:51:51.002Z,24.58
2022-10-16T00:54:24.963Z,24.77
2022-10-16T00:56:52.750Z,25.73
2022-10-16T00:59:34.594Z,25.52
2022-10-16T01:02:02.703Z,25.38
2022-10-16T01:04:38.095Z,24.92
2022-10-16T01:07:27.057Z,24.85
2022-10-16T01:10:00.845Z,24.98
2022-10-16T01:12:45.480Z,25.70
2022-10-16T01:15:33.592Z,25.10
2022-10-16T01:18:09.998Z,23.95
2022-10-16T01:20:44.325Z,25.20
2022-10-16T01:23:26.525Z,24.02
2022-10-16T01:26:32.379Z,24.40
2022-10-16T01:29:20.510Z,23.88
2022-10-16T01:31:55.024Z,22.30
2022-10-16T01:34:45.944Z,22.52
2022-10-16T01:37:30.764Z,22.60
2022-10-16T01:40:01.812Z,22.27
2022-10-16T01:42:35.939Z,22.20
2022-10-16T01:45:07.766Z,21.75
2022-10-16T01:47:37.892Z,23.80
2022-10-16T01:50:06.946Z,21.63
2022-10-16T01:52:38.392Z,23.00
2022-10-16T01:55:08.437Z,22.35
2022-10-16T01:57:40.535Z,21.88
2022-10-16T02:00:11.861Z,23.05
2022-10-16T02:02:44.626Z,22.88
2022-10-16T02:05:23.622Z,24.40
2022-10-16T02:07:51.253Z,23.10
2022-10-16T02:10:19.376Z,22.95
2022-10-16T02:12:57.504Z,22.52
2022-10-16T02:15:24.728Z,22.95
2022-10-16T02:17:51.870Z,23.15
2022-10-16T02:20:24.064Z,23.55
2022-10-16T02:22:53.142Z,22.70
2022-10-16T02:25:34.239Z,24.48
2022-10-16T02:28:03.967Z,23.45
2022-10-16T02:30:42.903Z,22.65
2022-10-16T02:33:14.775Z,24.00
2022-10-16T02:35:44.044Z,24.25
2022-10-16T02:38:13.708Z,23.42
2022-10-16T02:40:42.080Z,23.17
2022-10-16T02:43:10.309Z,23.23
2022-10-16T02:45:38.177Z,23.02
2022-10-16T02:48:05.742Z,24.02
2022-10-16T02:50:33.116Z,25.80
2022-10-16T02:53:00.231Z,25.33
2022-10-16T02:55:29.078Z,24.25
2022-10-16T02:57:56.224Z,25.60
2022-10-16T03:00:23.877Z,26.77
2022-10-16T03:02:51.515Z,26.58
2022-10-16T03:05:18.800Z,25.65
2022-10-16T03:07:45.948Z,26.00
2022-10-16T03:10:13.346Z,26.58
2022-10-16T03:12:40.617Z,26.98
2022-10-16T03:15:08.669Z,24.73
2022-10-16T03:17:36.037Z,26.02
2022-10-16T03:20:03.785Z,25.85
2022-10-16T03:22:30.954Z,26.38
2022-10-16T03:24:58.244Z,26.17
2022-10-16T03:27:25.599Z,27.58
2022-10-16T03:29:53.134Z,27.40
2022-10-16T03:32:21.277Z,26.50
2022-10-16T03:34:48.524Z,26.10
2022-10-16T03:37:15.692Z,26.70
2022-10-16T03:39:42.812Z,27.02
2022-10-16T03:42:09.970Z,26.67
2022-10-16T03:44:37.094Z,26.63
2022-10-16T03:47:04.193Z,26.85
2022-10-16T03:49:31.445Z,27.40
2022-10-16T03:51:58.673Z,26.88
2022-10-16T03:54:26.077Z,27.17
2022-10-16T03:56:53.256Z,26.35
2022-10-16T03:59:20.519Z,27.05
2022-10-16T04:01:47.808Z,27.08
2022-10-16T04:04:15.016Z,27.33
2022-10-16T04:06:42.334Z,27.50
2022-10-16T04:09:09.553Z,26.48
2022-10-16T04:11:36.935Z,26.67
2022-10-16T04:14:04.243Z,26.38
2022-10-16T04:16:31.488Z,27.63
2022-10-16T04:18:58.759Z,27.75
2022-10-16T04:21:26.087Z,27.52
2022-10-16T04:23:53.445Z,28.77
2022-10-16T04:26:20.759Z,28.92
2022-10-16T04:28:48.076Z,27.50
2022-10-16T04:31:15.607Z,26.13
2022-10-16T04:33:46.024Z,26.60
2022-10-16T04:38:40.994Z,26.73
2022-10-16T04:41:08.902Z,26.40
2022-10-16T04:43:36.401Z,25.35
2022-10-16T04:46:05.797Z,24.67
2022-10-16T04:48:33.439Z,25.43
2022-10-16T04:51:00.798Z,24.40
2022-10-16T04:53:28.274Z,24.20
2022-10-16T04:55:55.723Z,23.50
2022-10-16T04:58:23.576Z,23.35
2022-10-16T05:00:50.796Z,23.60
2022-10-16T05:03:18.432Z,22.13
2022-10-16T05:05:46.737Z,21.60
2022-10-16T05:08:15.338Z,22.05
2022-10-16T05:10:44.583Z,22.40
2022-10-16T05:13:12.359Z,20.35
2022-10-16T05:15:39.533Z,19.42
2022-10-16T05:18:06.816Z,20.20
2022-10-16T05:20:34.037Z,20.30
2022-10-16T05:23:01.589Z,19.92
2022-10-16T05:25:28.838Z,20.00
2022-10-16T05:27:56.060Z,18.90
2022-10-16T05:30:23.464Z,20.00
2022-10-16T05:32:52.116Z,19.13
2022-10-16T05:35:20.919Z,20.02
2022-10-16T05:37:48.540Z,19.83
2022-10-16T05:40:16.232Z,19.63
2022-10-16T05:42:43.388Z,19.80
2022-10-16T05:45:13.055Z,20.95
2022-10-16T05:47:40.673Z,18.75
2022-10-16T05:50:08.533Z,19.63
2022-10-16T05:52:35.774Z,19.10
2022-10-16T05:55:03.528Z,20.25
2022-10-16T05:57:31.249Z,19.25
2022-10-16T05:59:58.497Z,19.42
2022-10-16T06:02:25.649Z,20.88
2022-10-16T06:04:55.936Z,18.48
2022-10-16T06:07:24.412Z,19.65
2022-10-16T06:09:53.384Z,18.90
2022-10-16T06:12:21.069Z,19.25
2022-10-16T06:14:48.480Z,19.60
2022-10-16T06:17:15.949Z,19.20
2022-10-16T06:19:43.295Z,19.95
2022-10-16T06:22:11.014Z,18.60
2022-10-16T06:24:38.145Z,18.00
2022-10-16T06:27:06.593Z,18.35
2022-10-16T06:29:33.672Z,17.90
2022-10-16T06:32:01.383Z,17.38
2022-10-16T06:34:28.622Z,16.98
2022-10-16T06:36:56.728Z,17.35
2022-10-16T06:39:23.941Z,16.85
2022-10-16T06:41:51.130Z,16.92
2022-10-16T06:44:18.394Z,15.73
2022-10-16T06:46:45.724Z,16.55
2022-10-16T06:49:12.974Z,16.83
2022-10-16T06:51:43.392Z,15.50
2022-10-16T06:54:11.158Z,16.02
2022-10-16T06:56:38.840Z,14.00
2022-10-16T06:59:06.345Z,14.30
2022-10-16T07:01:34.146Z,14.57
2022-10-16T07:04:03.520Z,14.50
2022-10-16T07:06:34.609Z,14.15
2022-10-16T07:09:04.709Z,15.13
2022-10-16T07:11:32.025Z,16.02
2022-10-16T07:14:00.238Z,15.90
2022-10-16T07:16:29.773Z,16.45
2022-10-16T07:19:01.479Z,14.73
2022-10-16T07:21:31.920Z,14.50
2022-10-16T07:24:01.026Z,14.93
2022-10-16T07:26:31.216Z,14.90
2022-10-16T07:28:59.035Z,14.40
2022-10-16T07:31:26.772Z,14.57
2022-10-16T07:33:55.024Z,13.45
2022-10-16T07:36:22.950Z,13.77
2022-10-16T07:38:52.768Z,12.68
2022-10-16T07:41:22.601Z,12.43
2022-10-16T07:43:52.407Z,11.93
2022-10-16T07:46:22.061Z,11.38
2022-10-16T07:48:50.224Z,11.15
2022-10-16T07:51:20.453Z,11.10
2022-10-16T07:53:48.393Z,9.98
2022-10-16T07:56:16.854Z,9.93
2022-10-16T07:58:44.661Z,10.38
2022-10-16T08:01:16.538Z,9.35
2022-10-16T08:03:45.406Z,9.18
2022-10-16T08:06:12.705Z,8.75
2022-10-16T08:08:40.150Z,9.23
2022-10-16T08:11:07.287Z,8.52
2022-10-16T08:13:34.573Z,8.77
2022-10-16T08:16:02.058Z,8.70
2022-10-16T08:18:29.331Z,9.18
2022-10-16T08:20:59.175Z,8.63
2022-10-16T08:23:27.493Z,8.52
2022-10-16T08:25:57.297Z,8.15
2022-10-16T08:28:24.937Z,9.05
2022-10-16T08:30:52.184Z,7.32
2022-10-16T08:33:19.762Z,7.82
2022-10-16T08:35:54.988Z,7.80
2022-10-16T08:38:22.602Z,8.00
2022-10-16T08:40:52.863Z,8.50
2022-10-16T08:43:22.167Z,8.05
2022-10-16T08:46:22.704Z,7.90
2022-10-16T08:51:33.344Z,7.80
2022-10-16T08:54:23.023Z,7.88
2022-10-16T08:56:50.495Z,8.30
2022-10-16T08:59:19.767Z,8.73
2022-10-16T09:01:51.193Z,8.15
2022-10-16T09:04:56.788Z,7.80
2022-10-16T09:08:13.574Z,7.30
2022-10-16T09:10:46.748Z,7.30
2022-10-16T09:13:16.663Z,7.00
2022-10-16T09:16:06.998Z,7.45
2022-10-16T09:18:47.162Z,7.72
2022-10-16T09:21:31.881Z,7.32
2022-10-16T09:24:09.404Z,7.15
2022-10-16T09:26:36.583Z,7.03
2022-10-16T09:29:04.779Z,7.20
2022-10-16T09:31:32.273Z,7.15
2022-10-16T09:34:07.618Z,6.68
2022-10-16T09:36:43.305Z,7.15
2022-10-16T09:39:15.576Z,6.93
2022-10-16T09:41:46.247Z,7.18
2022-10-16T09:44:33.213Z,6.57
2022-10-16T09:47:15.848Z,8.15
2022-10-16T09:50:07.395Z,7.40
2022-10-16T09:52:34.838Z,8.10
2022-10-16T09:55:17.120Z,8.20
2022-10-16T09:57:54.901Z,8.63
2022-10-16T10:00:24.733Z,7.97
2022-10-16T10:02:52.957Z,8.30
2022-10-16T10:05:24.715Z,7.90
2022-10-16T10:08:01.179Z,8.50
2022-10-16T10:10:30.685Z,7.53
2022-10-16T10:12:58.468Z,7.77
2022-10-16T10:15:29.165Z,7.80
2022-10-16T10:17:58.259Z,7.70
2022-10-16T10:20:35.628Z,7.30
2022-10-16T10:23:22.844Z,6.85
2022-10-16T10:25:57.963Z,6.85
2022-10-16T10:28:49.778Z,8.10
2022-10-16T10:31:48.918Z,7.72
2022-10-16T10:34:37.608Z,6.90
2022-10-16T10:37:09.452Z,7.38
2022-10-16T10:39:44.817Z,6.93
2022-10-16T10:42:27.156Z,6.80
2022-10-16T10:45:05.262Z,6.10
2022-10-16T10:48:10.153Z,6.72
2022-10-16T10:50:42.578Z,6.63
2022-10-16T10:53:22.933Z,6.38
2022-10-16T10:58:52.754Z,5.95
2022-10-16T11:01:44.884Z,6.20
2022-10-16T11:04:12.009Z,5.93
2022-10-16T11:06:53.674Z,5.60
2022-10-16T11:09:28.747Z,6.40
2022-10-16T11:12:33.553Z,5.45
2022-10-16T11:15:18.889Z,5.68
2022-10-16T11:18:00.565Z,6.07
2022-10-16T11:20:33.003Z,5.63
2022-10-16T11:23:29.705Z,6.50
2022-10-16T11:26:03.526Z,5.60
2022-10-16T11:28:34.078Z,5.20
2022-10-16T11:31:21.142Z,5.35
2022-10-16T11:34:07.719Z,5.38
2022-10-16T11:36:44.176Z,5.25
2022-10-16T11:39:22.047Z,5.03
2022-10-16T11:41:54.203Z,4.95
2022-10-16T11:44:46.336Z,5.38
2022-10-16T11:47:58.638Z,5.25
2022-10-16T11:50:50.632Z,4.97
2022-10-16T11:53:22.953Z,5.07
2022-10-16T11:55:50.275Z,5.90
2022-10-16T11:58:17.577Z,5.38
2022-10-16T12:00:52.974Z,5.60
2022-10-16T12:03:29.585Z,5.57
2022-10-16T12:06:12.393Z,4.80
2022-10-16T12:08:40.002Z,5.38
2022-10-16T12:11:30.225Z,5.78
2022-10-16T12:14:06.555Z,5.60
2022-10-16T12:16:33.812Z,5.30
2022-10-16T12:19:13.232Z,4.90
2022-10-16T12:21:41.677Z,4.60
2022-10-16T12:24:42.666Z,4.72
2022-10-16T12:27:43.234Z,5.18
2022-10-16T12:30:25.014Z,5.25
2022-10-16T12:33:00.328Z,5.50
2022-10-16T12:35:34.846Z,5.10
2022-10-16T12:38:17.092Z,5.63
2022-10-16T12:40:46.264Z,4.72
2022-10-16T12:43:26.133Z,4.30
2022-10-16T12:46:23.858Z,5.03
2022-10-16T12:49:08.339Z,4.30
2022-10-16T12:51:39.095Z,4.57
2022-10-16T12:54:27.634Z,3.70
2022-10-16T12:57:00.485Z,4.38
2022-10-16T12:59:55.063Z,4.50
2022-10-16T13:02:53.195Z,3.90
2022-10-16T13:05:38.389Z,3.95
2022-10-16T13:08:27.228Z,4.38
2022-10-16T13:11:09.865Z,4.50
2022-10-16T13:13:53.356Z,4.13
2022-10-16T13:16:41.976Z,4.32
2022-10-16T13:19:18.103Z,4.30
2022-10-16T13:22:14.633Z,4.10
2022-10-16T13:25:00.630Z,4.00
2022-10-16T13:27:57.203Z,4.18
2022-10-16T13:30:31.146Z,4.35
2022-10-16T13:33:26.323Z,4.50
2022-10-16T13:35:56.507Z,4.35
2022-10-16T13:38:29.463Z,4.47
2022-10-16T13:40:58.013Z,5.28
2022-10-16T13:43:34.057Z,5.05
2022-10-16T13:46:26.642Z,4.20
2022-10-16T13:49:13.001Z,4.75
2022-10-16T13:51:40.249Z,4.30
2022-10-16T13:54:13.053Z,4.30
2022-10-16T13:56:41.864Z,4.30
2022-10-16T13:59:24.284Z,4.22
2022-10-16T14:01:55.505Z,3.92
2022-10-16T14:04:23.779Z,4.25
2022-10-16T14:06:53.073Z,4.18
2022-10-16T14:09:24.522Z,4.50
2022-10-16T14:11:56.433Z,4.30
2022-10-16T14:14:24.383Z,4.32
2022-10-16T14:16:52.327Z,3.78
2022-10-16T14:19:31.193Z,4.18
2022-10-16T14:22:01.086Z,4.10
2022-10-16T14:24:37.523Z,4.22
2022-10-16T14:27:31.242Z,3.95
2022-10-16T14:30:25.210Z,4.30
2022-10-16T14:33:21.660Z,4.40
2022-10-16T14:36:02.904Z,4.05
2022-10-16T14:38:30.967Z,3.95
2022-10-16T14:41:00.637Z,4.18
2022-10-16T14:43:46.402Z,4.10
2022-10-16T14:46:18.852Z,3.92
2022-10-16T14:51:20.227Z,4.25
2022-10-16T14:53:48.632Z,4.35
2022-10-16T14:56:31.311Z,4.00
2022-10-16T14:59:00.477Z,4.10
2022-10-16T15:01:27.952Z,4.30
2022-10-16T15:03:56.432Z,4.15
2022-10-16T15:06:23.809Z,4.28
2022-10-16T15:08:51.147Z,4.18
2022-10-16T15:11:20.424Z,3.65
2022-10-16T15:13:48.019Z,3.95
2022-10-16T15:16:17.845Z,4.15
2022-10-16T15:18:45.243Z,4.60
2022-10-16T15:21:30.634Z,4.10
2022-10-16T15:23:59.714Z,4.25
2022-10-16T15:26:28.877Z,4.30
2022-10-16T15:28:56.498Z,4.38
2022-10-16T15:31:24.859Z,4.88
2022-10-16T15:33:55.443Z,4.22
2022-10-16T15:36:27.525Z,4.45
2022-10-16T15:38:54.927Z,4.65
2022-10-16T15:41:22.923Z,4.40
2022-10-16T15:43:51.548Z,5.13
2022-10-16T15:46:21.456Z,4.68
2022-10-16T15:48:50.455Z,4.88
2022-10-16T15:51:18.960Z,4.88
2022-10-16T15:53:47.639Z,4.70
2022-10-16T15:56:15.644Z,4.65
2022-10-16T15:58:43.620Z,4.60
2022-10-16T16:01:12.484Z,4.53
2022-10-16T16:03:43.324Z,4.45
2022-10-16T16:06:14.435Z,5.00
2022-10-16T16:08:42.065Z,5.20
2022-10-16T16:11:12.514Z,5.03
2022-10-16T16:13:40.085Z,4.93
2022-10-16T16:16:15.880Z,4.90
2022-10-16T16:18:43.634Z,5.32
2022-10-16T16:21:13.401Z,4.90
2022-10-16T16:23:40.803Z,5.45
2022-10-16T16:26:16.648Z,4.93
2022-10-16T16:28:44.797Z,5.13
2022-10-16T16:31:12.234Z,5.25
2022-10-16T16:33:39.329Z,5.45
2022-10-16T16:36:11.534Z,5.20
2022-10-16T16:38:40.225Z,5.13
2022-10-16T16:41:22.089Z,5.63
2022-10-16T16:43:49.855Z,5.43
2022-10-16T16:46:17.135Z,5.53
2022-10-16T16:48:45.325Z,5.63
2022-10-16T16:51:17.476Z,5.80
2022-10-16T16:53:46.118Z,5.65
2022-10-16T16:56:14.135Z,5.82
2022-10-16T16:58:41.302Z,5.47
2022-10-16T17:01:26.239Z,5.70
2022-10-16T17:03:56.330Z,5.47
2022-10-16T17:06:30.823Z,5.90
2022-10-16T17:08:58.844Z,5.63
2022-10-16T17:11:28.073Z,5.95
2022-10-16T17:13:57.434Z,6.05
2022-10-16T17:16:28.309Z,5.88
2022-10-16T17:18:55.489Z,6.13
2022-10-16T17:21:23.060Z,6.28
2022-10-16T17:23:53.662Z,6.13
2022-10-16T17:26:20.857Z,7.32
2022-10-16T17:28:53.030Z,6.95
2022-10-16T17:31:38.613Z,6.45
2022-10-16T17:34:08.628Z,6.57
2022-10-16T17:36:37.575Z,6.80
2022-10-16T17:39:11.045Z,6.90
2022-10-16T17:41:38.527Z,6.28
2022-10-16T17:44:07.054Z,6.75
2022-10-16T17:46:38.265Z,6.65
2022-10-16T17:49:08.526Z,7.00
2022-10-16T17:51:36.761Z,7.07
2022-10-16T17:54:04.173Z,6.97
2022-10-16T17:56:31.926Z,7.30
2022-10-16T17:59:02.095Z,7.28
2022-10-16T18:01:35.085Z,8.20
2022-10-16T18:04:14.423Z,7.82
2022-10-16T18:06:44.392Z,8.20
2022-10-16T18:09:15.220Z,8.73
2022-10-16T18:11:42.385Z,7.85
2022-10-16T18:14:12.758Z,7.88
2022-10-16T18:19:07.590Z,8.20
2022-10-16T18:21:34.694Z,8.65
2022-10-16T18:24:02.163Z,8.25
2022-10-16T18:26:29.485Z,8.20
2022-10-16T18:28:58.532Z,7.97
2022-10-16T18:31:29.074Z,8.10
2022-10-16T18:33:56.417Z,8.38
2022-10-16T18:36:26.662Z,8.55
2022-10-16T18:38:54.293Z,8.70
2022-10-16T18:41:21.995Z,8.38
2022-10-16T18:43:49.307Z,9.40
2022-10-16T18:46:22.125Z,8.80
2022-10-16T18:48:50.265Z,9.43
2022-10-16T18:51:39.325Z,8.88
2022-10-16T18:54:11.923Z,9.00
2022-10-16T18:56:39.894Z,9.60
2022-10-16T18:59:08.471Z,8.98
2022-10-16T19:01:39.000Z,9.38
2022-10-16T19:04:09.748Z,8.82
2022-10-16T19:06:39.549Z,9.50
2022-10-16T19:09:07.581Z,9.18
2022-10-16T19:11:40.514Z,9.57
2022-10-16T19:14:09.273Z,9.07
2022-10-16T19:16:38.317Z,10.00
2022-10-16T19:19:08.058Z,10.05
2022-10-16T19:21:37.748Z,9.25
2022-10-16T19:24:05.522Z,9.57
2022-10-16T19:26:36.806Z,9.85
2022-10-16T19:29:07.473Z,9.38
2022-10-16T19:31:35.037Z,10.75
2022-10-16T19:34:03.593Z,9.25
2022-10-16T19:36:38.267Z,9.55
2022-10-16T19:39:08.318Z,9.75
2022-10-16T19:41:38.255Z,9.75
2022-10-16T19:44:08.373Z,9.57
2022-10-16T19:46:36.384Z,10.10
2022-10-16T19:49:07.160Z,10.20
2022-10-16T19:51:35.414Z,9.85
2022-10-16T19:54:05.518Z,10.60
2022-10-16T19:56:34.048Z,9.95
2022-10-16T19:59:01.755Z,10.10
2022-10-16T20:01:31.402Z,10.25
2022-10-16T20:03:59.006Z,10.43
2022-10-16T20:06:26.363Z,9.77
2022-10-16T20:08:54.453Z,9.20
2022-10-16T20:11:24.824Z,9.27
2022-10-16T20:16:20.127Z,9.00
2022-10-16T20:18:49.603Z,10.45
2022-10-16T20:21:19.623Z,9.60
2022-10-16T20:23:49.162Z,10.13
2022-10-16T20:26:16.981Z,10.50
2022-10-16T20:28:44.795Z,10.57
2022-10-16T20:31:18.358Z,10.88
2022-10-16T20:33:45.730Z,11.18
2022-10-16T20:36:14.616Z,11.68
2022-10-16T20:38:42.934Z,11.48
2022-10-16T20:41:11.006Z,11.23
2022-10-16T20:46:11.155Z,10.80
2022-10-16T20:48:41.335Z,12.45
2022-10-16T20:51:16.878Z,11.60
2022-10-16T20:53:46.718Z,10.75
2022-10-16T20:56:18.583Z,12.07
2022-10-16T20:58:46.105Z,11.07
2022-10-16T21:01:15.680Z,11.02
2022-10-16T21:03:43.756Z,11.13
2022-10-16T21:06:11.848Z,11.57
2022-10-16T21:08:41.389Z,11.75
2022-10-16T21:11:16.584Z,11.10
2022-10-16T21:13:44.453Z,11.75
2022-10-16T21:16:13.078Z,11.80
2022-10-16T21:18:44.359Z,11.30
2022-10-16T21:21:20.073Z,11.32
2022-10-16T21:23:48.384Z,11.05
2022-10-16T21:26:15.777Z,10.52
2022-10-16T21:28:43.019Z,12.63
2022-10-16T21:31:15.724Z,11.75
2022-10-16T21:33:43.185Z,10.80
2022-10-16T21:36:21.777Z,11.20
2022-10-16T21:38:49.441Z,10.52
2022-10-16T21:41:27.292Z,11.43
2022-10-16T21:43:56.475Z,11.15
2022-10-16T21:46:26.556Z,12.10
2022-10-16T21:48:55.277Z,11.32
2022-10-16T21:51:31.285Z,11.50
2022-10-16T21:53:58.412Z,11.45
2022-10-16T21:56:26.910Z,11.43
2022-10-16T21:58:54.232Z,11.73
2022-10-16T22:01:24.071Z,11.57
2022-10-16T22:03:52.298Z,11.30
2022-10-16T22:08:51.745Z,10.40
2022-10-16T22:11:23.294Z,10.70
2022-10-16T22:13:54.045Z,10.93
2022-10-16T22:16:25.541Z,12.18
2022-10-16T22:18:53.899Z,10.52
2022-10-16T22:21:21.204Z,11.32
2022-10-16T22:23:48.492Z,11.35
2022-10-16T22:26:16.170Z,10.85
2022-10-16T22:28:43.897Z,10.68
2022-10-16T22:31:13.675Z,12.20
2022-10-16T22:33:43.505Z,12.20
2022-10-16T22:36:15.163Z,11.27
2022-10-16T22:38:42.475Z,11.00
2022-10-16T22:41:12.534Z,10.45
2022-10-16T22:43:43.312Z,9.80
2022-10-16T22:46:14.157Z,9.35
2022-10-16T22:48:42.127Z,9.50
2022-10-16T22:51:15.735Z,11.05
2022-10-16T22:53:48.446Z,10.88
2022-10-16T22:56:17.992Z,12.50
2022-10-16T22:58:45.372Z,11.03
2022-10-16T23:01:14.765Z,11.30
2022-10-16T23:03:42.147Z,11.03
2022-10-16T23:06:09.225Z,10.23
2022-10-16T23:08:36.321Z,10.75
2022-10-16T23:11:08.463Z,10.80
2022-10-16T23:13:45.800Z,14.27
2022-10-16T23:16:15.594Z,12.02
2022-10-16T23:18:44.594Z,11.80
2022-10-16T23:21:18.484Z,12.15
2022-10-16T23:23:45.663Z,12.45
2022-10-16T23:26:17.934Z,11.90
2022-10-16T23:28:45.601Z,12.18
2022-10-16T23:31:13.773Z,10.70
2022-10-16T23:33:42.131Z,10.52
2022-10-16T23:36:14.607Z,12.30
2022-10-16T23:38:43.554Z,10.02
2022-10-16T23:41:11.328Z,11.65
2022-10-16T23:43:38.545Z,11.80
2022-10-16T23:46:06.964Z,11.70
2022-10-16T23:48:34.434Z,11.90
2022-10-16T23:51:01.873Z,11.55
2022-10-16T23:53:29.083Z,10.10
2022-10-16T23:55:56.386Z,12.07
2022-10-16T23:58:23.980Z,11.93
